Time;durP1;ratioP1;P1;durP2;ratioP2;P2;SDS_P1;SDS_P2;PMS_P1;PMS_P2;Temp;Humidity;BMP_temperature;BMP_pressure;BME280_temperature;BME280_humidity;BME280_pressure;Samples;Min_cycle;Max_cycle;Signal;HPM_P1;HPM_P2
2021/12/28 00:00:30;;;;;;;27.95;11.30;;;2.30;99.90;;;;;;4997592;28;20034;-87
2021/12/28 00:02:57;;;;;;;30.02;12.77;;;2.30;99.90;;;;;;5000863;28;20019;-89
2021/12/28 00:05:25;;;;;;;28.23;12.63;;;2.30;99.90;;;;;;5000974;28;20038;-87
2021/12/28 00:07:51;;;;;;;23.75;12.15;;;2.40;99.90;;;;;;4999458;28;20011;-85
2021/12/28 00:10:19;;;;;;;25.88;12.07;;;2.40;99.90;;;;;;5000590;28;20038;-84
2021/12/28 00:12:46;;;;;;;31.42;11.95;;;2.40;99.90;;;;;;5000743;28;20091;-85
2021/12/28 00:18:04;;;;;;;30.30;12.25;;;2.30;99.90;;;;;;5001537;28;20019;-86
2021/12/28 00:20:42;;;;;;;26.67;12.32;;;2.40;99.90;;;;;;4984833;28;20081;-85
2021/12/28 00:23:20;;;;;;;26.48;12.18;;;2.30;99.90;;;;;;5000861;28;20042;-84
2021/12/28 00:25:48;;;;;;;29.02;12.30;;;2.20;99.90;;;;;;5000828;28;20062;-84
2021/12/28 00:28:14;;;;;;;29.20;12.80;;;2.30;99.90;;;;;;5001326;28;20015;-86
2021/12/28 00:30:41;;;;;;;28.27;12.13;;;2.30;99.90;;;;;;5001179;28;20042;-85
2021/12/28 00:33:08;;;;;;;25.50;12.25;;;2.30;99.90;;;;;;5000696;28;20058;-86
2021/12/28 00:35:36;;;;;;;29.88;12.18;;;2.30;99.90;;;;;;5000939;28;20026;-85
2021/12/28 00:38:08;;;;;;;27.67;11.82;;;2.30;99.90;;;;;;5000666;28;20018;-86
2021/12/28 00:40:36;;;;;;;26.48;12.32;;;2.30;99.90;;;;;;5001428;28;20030;-87
2021/12/28 00:43:02;;;;;;;28.92;12.88;;;2.30;99.90;;;;;;5001254;28;20062;-84
2021/12/28 00:45:28;;;;;;;30.92;13.45;;;2.30;99.90;;;;;;5001420;28;20019;-86
2021/12/28 00:47:55;;;;;;;31.10;11.98;;;2.30;99.90;;;;;;5001096;28;20038;-85
2021/12/28 00:50:23;;;;;;;30.70;12.85;;;2.20;99.90;;;;;;4983711;28;20031;-84
2021/12/28 00:52:49;;;;;;;29.48;12.40;;;2.20;99.90;;;;;;4999553;28;20018;-86
2021/12/28 00:55:17;;;;;;;23.35;11.20;;;2.20;99.90;;;;;;5001345;28;20030;-84
2021/12/28 00:57:43;;;;;;;26.90;12.38;;;2.20;99.90;;;;;;4999777;28;20031;-84
2021/12/28 01:00:14;;;;;;;30.42;12.05;;;2.10;99.90;;;;;;5000139;28;20030;-84
2021/12/28 01:02:40;;;;;;;24.50;12.55;;;2.10;99.90;;;;;;5000220;28;20046;-82
2021/12/28 01:05:08;;;;;;;30.48;12.63;;;2.10;99.90;;;;;;4999343;28;20031;-81
2021/12/28 01:07:34;;;;;;;30.20;12.40;;;2.10;99.90;;;;;;4999260;28;20035;-82
2021/12/28 01:10:00;;;;;;;27.25;11.65;;;2.10;99.90;;;;;;4998802;28;20019;-84
2021/12/28 01:12:27;;;;;;;28.02;11.93;;;2.10;99.90;;;;;;4999671;28;20022;-82
2021/12/28 01:14:53;;;;;;;27.17;12.70;;;2.10;99.90;;;;;;5000431;28;20045;-83
2021/12/28 01:17:19;;;;;;;29.58;12.52;;;2.10;99.90;;;;;;5000104;28;20038;-83
2021/12/28 01:19:44;;;;;;;29.70;12.35;;;2.20;99.90;;;;;;5000376;28;20014;-84
2021/12/28 01:22:10;;;;;;;31.85;12.60;;;2.20;99.90;;;;;;5000671;28;20027;-82
2021/12/28 01:24:36;;;;;;;32.13;12.02;;;2.20;99.90;;;;;;5000537;28;20095;-83
2021/12/28 01:27:02;;;;;;;28.33;12.57;;;2.20;99.90;;;;;;4999788;28;20022;-88
2021/12/28 01:29:28;;;;;;;27.42;12.35;;;2.20;99.90;;;;;;4983881;28;20046;-86
2021/12/28 01:31:54;;;;;;;29.23;12.27;;;2.20;99.90;;;;;;5000467;28;20094;-88
2021/12/28 01:34:20;;;;;;;28.63;12.10;;;2.20;99.90;;;;;;5000034;28;20046;-89
2021/12/28 01:36:46;;;;;;;30.02;12.27;;;2.10;99.90;;;;;;4999903;28;20119;-89
2021/12/28 01:39:12;;;;;;;26.35;11.65;;;2.10;99.90;;;;;;5000164;28;20019;-88
2021/12/28 01:41:38;;;;;;;26.10;11.60;;;2.10;99.90;;;;;;4999629;28;20034;-87
2021/12/28 01:44:08;;;;;;;31.85;12.02;;;2.10;99.90;;;;;;4999112;28;20027;-88
2021/12/28 01:46:35;;;;;;;31.23;11.80;;;2.00;99.90;;;;;;5000154;28;20119;-88
2021/12/28 01:49:01;;;;;;;26.70;12.23;;;2.00;99.90;;;;;;4999568;28;20030;-87
2021/12/28 01:51:27;;;;;;;32.08;12.18;;;2.00;99.90;;;;;;5000128;28;20110;-87
2021/12/28 01:53:56;;;;;;;32.88;12.25;;;2.00;99.90;;;;;;5000018;28;20007;-86
2021/12/28 01:56:29;;;;;;;25.75;11.85;;;2.00;99.90;;;;;;5000189;28;20074;-88
2021/12/28 01:58:55;;;;;;;26.60;11.52;;;1.90;99.90;;;;;;5000007;28;20035;-88
2021/12/28 02:01:22;;;;;;;27.60;12.35;;;1.90;99.90;;;;;;4999804;28;20030;-87
2021/12/28 02:03:48;;;;;;;21.10;11.15;;;1.90;99.90;;;;;;4973076;23;1133080;-81
2021/12/28 02:06:16;;;;;;;33.33;11.27;;;1.90;99.90;;;;;;4999203;28;20034;-81
2021/12/28 02:08:42;;;;;;;27.20;11.43;;;1.80;99.90;;;;;;4998402;28;20015;-82
2021/12/28 02:11:10;;;;;;;25.58;11.57;;;1.80;99.90;;;;;;4997635;28;20035;-82
2021/12/28 02:13:35;;;;;;;25.33;11.52;;;1.90;99.90;;;;;;4989974;28;20062;-84
2021/12/28 02:16:02;;;;;;;27.17;12.05;;;1.90;99.90;;;;;;4997700;28;20007;-85
2021/12/28 02:18:30;;;;;;;24.27;11.43;;;1.90;99.90;;;;;;4996184;28;20097;-84
2021/12/28 02:20:57;;;;;;;25.95;12.00;;;1.90;99.90;;;;;;4993511;28;20019;-80
2021/12/28 02:23:24;;;;;;;23.70;11.13;;;2.00;99.90;;;;;;5004488;28;20038;-83
2021/12/28 02:25:50;;;;;;;26.13;10.15;;;2.00;99.90;;;;;;4985297;28;20030;-84
2021/12/28 02:28:16;;;;;;;27.92;11.48;;;2.00;99.90;;;;;;4988242;28;20398;-83
2021/12/28 02:30:46;;;;;;;28.17;11.75;;;2.00;99.90;;;;;;4987756;28;20047;-82
2021/12/28 02:33:13;;;;;;;26.08;11.70;;;2.00;99.90;;;;;;4990617;28;20050;-82
2021/12/28 02:35:39;;;;;;;26.60;11.60;;;2.00;99.90;;;;;;4993535;28;20034;-82
2021/12/28 02:38:07;;;;;;;25.17;11.27;;;2.00;99.90;;;;;;4996766;28;20031;-82
2021/12/28 02:40:35;;;;;;;25.75;11.05;;;2.00;99.90;;;;;;5012768;28;20054;-81
2021/12/28 02:43:03;;;;;;;26.10;11.77;;;1.90;99.90;;;;;;4996024;28;20043;-81
2021/12/28 02:45:39;;;;;;;31.23;12.15;;;1.90;99.90;;;;;;4996926;28;20039;-83
2021/12/28 02:48:06;;;;;;;27.73;12.60;;;1.90;99.90;;;;;;4996879;28;20034;-81
2021/12/28 02:50:42;;;;;;;25.52;11.00;;;1.90;99.90;;;;;;4996540;28;20030;-82
2021/12/28 02:53:09;;;;;;;25.67;11.70;;;1.90;99.90;;;;;;4995605;28;20030;-82
2021/12/28 02:55:36;;;;;;;29.10;11.68;;;1.90;99.90;;;;;;4997366;28;20091;-82
2021/12/28 02:58:07;;;;;;;28.17;12.20;;;1.90;99.90;;;;;;4997193;28;20022;-80
2021/12/28 03:00:36;;;;;;;30.23;12.05;;;1.90;99.90;;;;;;4996758;28;20034;-82
2021/12/28 03:03:12;;;;;;;25.88;12.40;;;1.90;99.90;;;;;;4996086;28;20073;-81
2021/12/28 03:05:40;;;;;;;31.75;12.30;;;1.80;99.90;;;;;;4992661;28;20066;-81
2021/12/28 03:08:06;;;;;;;25.25;11.07;;;1.80;99.90;;;;;;4986369;28;20029;-82
2021/12/28 03:10:32;;;;;;;27.27;11.77;;;1.70;99.90;;;;;;4985384;28;20038;-82
2021/12/28 03:12:58;;;;;;;27.02;11.30;;;1.70;99.90;;;;;;4985873;28;20023;-83
2021/12/28 03:15:25;;;;;;;27.63;11.95;;;1.80;99.90;;;;;;4986080;28;20031;-82
2021/12/28 03:17:50;;;;;;;25.95;12.30;;;1.80;99.90;;;;;;4988597;28;20042;-84
2021/12/28 03:20:17;;;;;;;30.38;12.82;;;1.70;99.90;;;;;;4986557;28;20039;-83
2021/12/28 03:22:44;;;;;;;25.83;12.32;;;1.80;99.90;;;;;;4983350;28;20398;-83
2021/12/28 03:25:10;;;;;;;24.85;12.25;;;1.80;99.90;;;;;;4983036;28;20051;-83
2021/12/28 03:27:37;;;;;;;28.08;12.38;;;1.80;99.90;;;;;;4988221;28;20021;-83
2021/12/28 03:30:06;;;;;;;29.48;11.38;;;1.70;99.90;;;;;;4995035;28;20043;-83
2021/12/28 03:32:32;;;;;;;27.75;12.55;;;1.70;99.90;;;;;;4993191;28;20043;-83
2021/12/28 03:34:58;;;;;;;28.17;12.73;;;1.70;99.90;;;;;;4995988;28;20035;-83
2021/12/28 03:37:24;;;;;;;30.42;12.70;;;1.70;99.90;;;;;;4998465;28;20053;-83
2021/12/28 03:39:50;;;;;;;27.42;11.73;;;1.80;99.90;;;;;;4997650;28;20023;-81
2021/12/28 03:42:15;;;;;;;25.75;11.90;;;1.80;99.90;;;;;;4997713;28;20031;-80
2021/12/28 03:44:42;;;;;;;26.17;11.02;;;1.80;99.90;;;;;;4999625;28;20014;-82
2021/12/28 03:47:08;;;;;;;26.80;10.95;;;1.80;99.90;;;;;;4998975;28;20019;-81
2021/12/28 03:49:33;;;;;;;26.35;11.98;;;1.90;99.90;;;;;;4998165;28;20022;-83
2021/12/28 03:52:00;;;;;;;29.90;11.63;;;1.80;99.90;;;;;;4998962;28;20027;-82
2021/12/28 03:54:26;;;;;;;23.98;11.05;;;1.80;99.90;;;;;;5009865;28;20054;-81
2021/12/28 03:56:53;;;;;;;29.27;11.45;;;1.80;99.90;;;;;;5014912;28;20047;-81
2021/12/28 03:59:20;;;;;;;24.20;11.65;;;1.80;99.90;;;;;;4997482;28;20078;-82
2021/12/28 04:01:46;;;;;;;24.73;11.73;;;1.80;99.90;;;;;;4992708;28;20479;-83
2021/12/28 04:04:12;;;;;;;24.40;10.43;;;1.80;99.90;;;;;;4991555;28;20101;-82
2021/12/28 04:06:38;;;;;;;27.73;11.30;;;1.80;99.90;;;;;;4989292;28;20030;-83
2021/12/28 04:09:06;;;;;;;26.67;11.25;;;1.80;99.90;;;;;;4993939;28;20058;-81
2021/12/28 04:11:32;;;;;;;27.92;11.32;;;1.80;99.90;;;;;;5013237;28;20090;-81
2021/12/28 04:14:05;;;;;;;26.25;11.20;;;1.80;99.90;;;;;;4998121;28;20011;-82
2021/12/28 04:16:32;;;;;;;32.97;11.13;;;1.80;99.90;;;;;;4997164;28;20037;-82
2021/12/28 04:18:58;;;;;;;28.08;11.68;;;1.80;99.90;;;;;;4992528;28;20023;-81
2021/12/28 04:21:24;;;;;;;25.33;11.25;;;1.70;99.90;;;;;;4986982;28;20042;-83
2021/12/28 04:23:50;;;;;;;21.42;10.45;;;1.70;99.90;;;;;;5004950;28;20114;-81
2021/12/28 04:26:16;;;;;;;27.50;12.18;;;1.80;99.90;;;;;;4993513;28;20038;-83
2021/12/28 04:28:43;;;;;;;25.65;11.80;;;1.80;99.90;;;;;;4989042;28;20452;-82
2021/12/28 04:31:10;;;;;;;23.63;11.68;;;1.80;99.90;;;;;;4999255;28;20065;-83
2021/12/28 04:33:38;;;;;;;24.92;10.90;;;1.90;99.90;;;;;;4989203;28;20027;-82
2021/12/28 04:36:13;;;;;;;26.40;12.10;;;1.90;99.90;;;;;;4994862;28;20038;-82
2021/12/28 04:38:41;;;;;;;24.02;11.40;;;1.80;99.90;;;;;;4993723;28;20030;-81
2021/12/28 04:41:08;;;;;;;24.27;11.27;;;1.60;99.90;;;;;;5010863;28;20031;-81
2021/12/28 04:43:34;;;;;;;22.55;10.68;;;1.70;99.90;;;;;;4995030;28;20031;-82
2021/12/28 04:46:00;;;;;;;25.60;11.35;;;1.70;99.90;;;;;;4996572;28;20077;-81
2021/12/28 04:48:26;;;;;;;26.45;11.88;;;1.70;99.90;;;;;;4997852;28;20035;-82
2021/12/28 04:50:52;;;;;;;25.52;12.95;;;1.70;99.90;;;;;;4997899;28;20018;-82
2021/12/28 04:53:19;;;;;;;30.27;12.38;;;1.60;99.90;;;;;;4997402;28;20088;-82
2021/12/28 04:55:47;;;;;;;23.70;11.35;;;1.60;99.90;;;;;;4994874;28;20023;-85
2021/12/28 04:58:14;;;;;;;27.25;11.65;;;1.50;99.90;;;;;;4986078;28;20099;-84
2021/12/28 05:00:43;;;;;;;26.58;11.25;;;1.60;99.90;;;;;;4988488;28;20026;-82
2021/12/28 05:03:10;;;;;;;27.10;12.13;;;1.60;99.90;;;;;;4987185;28;20046;-84
2021/12/28 05:05:39;;;;;;;33.38;12.45;;;1.70;99.90;;;;;;4983379;28;20130;-84
2021/12/28 05:08:05;;;;;;;27.85;11.10;;;1.60;99.90;;;;;;4982366;28;20027;-85
2021/12/28 05:10:32;;;;;;;30.27;11.98;;;1.70;99.90;;;;;;4982388;28;20058;-84
2021/12/28 05:12:58;;;;;;;34.42;13.77;;;1.70;99.90;;;;;;4982860;28;20038;-82
2021/12/28 05:15:24;;;;;;;31.90;12.45;;;1.70;99.90;;;;;;4994165;28;20065;-83
2021/12/28 05:17:51;;;;;;;28.88;12.82;;;1.80;99.90;;;;;;4990248;28;20062;-84
2021/12/28 05:20:17;;;;;;;31.83;13.13;;;1.70;99.90;;;;;;4990582;28;20054;-81
2021/12/28 05:22:43;;;;;;;26.63;12.75;;;1.60;99.90;;;;;;4999911;28;20055;-81
2021/12/28 05:25:09;;;;;;;32.65;13.52;;;1.70;99.90;;;;;;4996648;28;20069;-84
2021/12/28 05:27:35;;;;;;;31.02;13.68;;;1.60;99.90;;;;;;4987736;28;20038;-82
2021/12/28 05:30:03;;;;;;;28.75;13.88;;;1.70;99.90;;;;;;4999633;28;20027;-83
2021/12/28 05:32:29;;;;;;;37.90;14.43;;;1.60;99.90;;;;;;5010956;28;20051;-83
2021/12/28 05:34:55;;;;;;;44.67;15.43;;;1.50;99.90;;;;;;4992593;28;20023;-83
2021/12/28 05:37:21;;;;;;;38.80;16.38;;;1.60;99.90;;;;;;4990743;28;20151;-84
2021/12/28 05:39:47;;;;;;;39.08;16.67;;;1.50;99.90;;;;;;4982670;28;20106;-83
2021/12/28 05:42:12;;;;;;;34.58;15.27;;;1.50;99.90;;;;;;4981165;28;20097;-82
2021/12/28 05:44:38;;;;;;;37.88;16.60;;;1.50;99.90;;;;;;4986959;28;20109;-84
2021/12/28 05:47:04;;;;;;;38.03;15.32;;;1.50;99.90;;;;;;4987413;28;20027;-85
2021/12/28 05:49:30;;;;;;;43.42;15.68;;;1.50;99.90;;;;;;4985517;28;20019;-83
2021/12/28 05:51:56;;;;;;;42.50;16.50;;;1.40;99.90;;;;;;4986096;28;20510;-81
2021/12/28 05:54:22;;;;;;;39.28;16.83;;;1.50;99.90;;;;;;4985353;28;20038;-83
2021/12/28 05:56:48;;;;;;;45.97;18.13;;;1.50;99.90;;;;;;4983449;28;20095;-83
2021/12/28 05:59:13;;;;;;;50.65;17.05;;;1.50;99.90;;;;;;4982366;28;20019;-85
2021/12/28 06:01:39;;;;;;;44.55;18.00;;;1.50;99.90;;;;;;4986384;28;20069;-83
2021/12/28 06:04:05;;;;;;;48.38;17.55;;;1.50;99.90;;;;;;4989487;28;20510;-84
2021/12/28 06:06:31;;;;;;;46.45;17.60;;;1.50;99.90;;;;;;4988782;28;20433;-83
2021/12/28 06:08:57;;;;;;;50.92;17.50;;;1.50;99.90;;;;;;4992763;28;20569;-83
2021/12/28 06:11:23;;;;;;;48.60;18.27;;;1.50;99.90;;;;;;4998212;28;20042;-81
2021/12/28 06:13:49;;;;;;;41.72;17.17;;;1.60;99.90;;;;;;4999561;28;20022;-81
2021/12/28 06:16:15;;;;;;;54.67;19.70;;;1.60;99.90;;;;;;4999546;28;20050;-84
2021/12/28 06:18:41;;;;;;;47.55;18.42;;;1.50;99.90;;;;;;4999905;28;20042;-82
2021/12/28 06:21:07;;;;;;;42.85;17.85;;;1.50;99.90;;;;;;4998931;28;20030;-81
2021/12/28 06:23:34;;;;;;;53.67;18.92;;;1.50;99.90;;;;;;4999289;28;20050;-81
2021/12/28 06:26:01;;;;;;;51.08;18.52;;;1.50;99.90;;;;;;4999269;28;20041;-82
2021/12/28 06:28:27;;;;;;;54.70;19.05;;;1.50;99.90;;;;;;4999161;28;20019;-81
2021/12/28 06:30:56;;;;;;;65.78;21.73;;;1.40;99.90;;;;;;4998954;28;20070;-81
2021/12/28 06:33:23;;;;;;;61.53;21.00;;;1.50;99.90;;;;;;4998719;28;20087;-80
2021/12/28 06:35:49;;;;;;;51.38;19.85;;;1.40;99.90;;;;;;4998685;28;20019;-82
2021/12/28 06:38:16;;;;;;;58.20;21.45;;;1.40;99.90;;;;;;4998008;28;20069;-82
2021/12/28 06:40:43;;;;;;;53.72;21.08;;;1.40;99.90;;;;;;4997057;28;20035;-83
2021/12/28 06:43:09;;;;;;;59.50;21.30;;;1.50;99.90;;;;;;4994514;28;20263;-84
2021/12/28 06:45:35;;;;;;;65.53;21.80;;;1.50;99.90;;;;;;5010327;28;20121;-81
2021/12/28 06:48:01;;;;;;;64.00;22.92;;;1.50;99.90;;;;;;4996790;28;20031;-80
2021/12/28 06:50:27;;;;;;;58.85;22.40;;;1.50;99.90;;;;;;4993393;28;20045;-82
2021/12/28 06:52:53;;;;;;;68.00;23.33;;;1.40;99.90;;;;;;4984885;28;20031;-83
2021/12/28 06:55:19;;;;;;;69.57;24.67;;;1.50;99.90;;;;;;4998693;28;20041;-83
2021/12/28 06:57:45;;;;;;;75.95;23.90;;;1.50;99.90;;;;;;4982432;28;20048;-81
2021/12/28 07:00:14;;;;;;;72.32;24.42;;;1.50;99.90;;;;;;4997933;28;20038;-86
2021/12/28 07:02:40;;;;;;;69.97;24.20;;;1.50;99.90;;;;;;5004313;28;20011;-81
2021/12/28 07:05:07;;;;;;;70.95;25.77;;;1.50;99.90;;;;;;5007311;28;20073;-82
2021/12/28 07:07:33;;;;;;;84.32;27.90;;;1.50;99.90;;;;;;4986618;28;20031;-83
2021/12/28 07:09:59;;;;;;;91.55;28.60;;;1.50;99.90;;;;;;4988395;28;20031;-82
2021/12/28 07:12:25;;;;;;;80.28;26.40;;;1.40;99.90;;;;;;5001700;28;20034;-83
2021/12/28 07:14:51;;;;;;;86.20;26.85;;;1.40;99.90;;;;;;4987058;28;20156;-84
2021/12/28 07:17:16;;;;;;;80.03;25.40;;;1.40;99.90;;;;;;4989215;28;20086;-82
2021/12/28 07:19:42;;;;;;;83.80;27.08;;;1.30;99.90;;;;;;4995117;28;20026;-82
2021/12/28 07:22:08;;;;;;;92.72;28.23;;;1.40;99.90;;;;;;4990818;28;20032;-84
2021/12/28 07:24:34;;;;;;;83.05;25.92;;;1.40;99.90;;;;;;4987921;28;20027;-85
2021/12/28 07:27:00;;;;;;;77.88;24.88;;;1.30;99.90;;;;;;5002593;28;20121;-82
2021/12/28 07:29:26;;;;;;;100.90;29.27;;;1.40;99.90;;;;;;4991763;28;20027;-81
2021/12/28 07:31:51;;;;;;;89.13;27.98;;;1.40;99.90;;;;;;4999060;28;20084;-82
2021/12/28 07:34:18;;;;;;;94.20;27.60;;;1.30;99.90;;;;;;4999274;28;20031;-83
2021/12/28 07:36:44;;;;;;;89.80;27.75;;;1.40;99.90;;;;;;4998676;28;20038;-81
2021/12/28 07:39:10;;;;;;;85.90;26.27;;;1.40;99.90;;;;;;4997721;28;20037;-81
2021/12/28 07:41:36;;;;;;;84.53;26.15;;;1.40;99.90;;;;;;4997605;28;20041;-82
2021/12/28 07:44:03;;;;;;;78.88;24.95;;;1.30;99.90;;;;;;4998978;28;20098;-81
2021/12/28 07:46:29;;;;;;;87.03;24.92;;;1.30;99.90;;;;;;4999155;28;20025;-83
2021/12/28 07:48:55;;;;;;;89.30;24.50;;;1.30;99.90;;;;;;4998417;28;20035;-82
2021/12/28 07:51:21;;;;;;;83.38;26.00;;;1.30;99.90;;;;;;4998678;28;20038;-81
2021/12/28 07:53:47;;;;;;;93.55;25.73;;;1.40;99.90;;;;;;4999162;28;20035;-82
2021/12/28 07:56:14;;;;;;;86.45;25.27;;;1.40;99.90;;;;;;4982869;28;20026;-83
2021/12/28 07:58:41;;;;;;;75.60;23.90;;;1.40;99.90;;;;;;4993336;28;20065;-82
2021/12/28 08:01:07;;;;;;;84.40;25.33;;;1.50;99.90;;;;;;4978095;28;20027;-82
2021/12/28 08:06:09;;;;;;;82.93;24.50;;;1.40;99.90;;;;;;5009961;28;20039;-83
2021/12/28 08:08:36;;;;;;;75.38;23.02;;;1.40;99.90;;;;;;4997114;28;20046;-84
2021/12/28 08:11:02;;;;;;;89.60;25.75;;;1.30;99.90;;;;;;4992981;28;20035;-84
2021/12/28 08:13:28;;;;;;;96.50;26.05;;;1.30;99.90;;;;;;4987745;28;20074;-85
2021/12/28 08:15:55;;;;;;;88.32;25.42;;;1.30;99.90;;;;;;4988735;28;20018;-83
2021/12/28 08:18:21;;;;;;;95.55;25.15;;;1.40;99.90;;;;;;4990425;28;20102;-84
2021/12/28 08:20:47;;;;;;;74.43;24.73;;;1.50;99.90;;;;;;4988591;28;20232;-84
2021/12/28 08:23:14;;;;;;;79.53;22.83;;;1.50;99.90;;;;;;4996010;28;20033;-84
2021/12/28 08:25:40;;;;;;;86.57;25.80;;;1.40;99.90;;;;;;4998556;28;20050;-84
2021/12/28 08:28:06;;;;;;;100.70;25.88;;;1.40;99.90;;;;;;5001362;28;20078;-86
2021/12/28 08:30:36;;;;;;;78.35;24.58;;;1.40;99.90;;;;;;5000115;28;20050;-84
2021/12/28 08:33:07;;;;;;;84.30;25.15;;;1.40;99.90;;;;;;4998440;28;20159;-85
2021/12/28 08:35:34;;;;;;;83.97;26.08;;;1.40;99.90;;;;;;4999141;28;20027;-84
2021/12/28 08:37:59;;;;;;;82.40;23.75;;;1.40;99.90;;;;;;5000855;28;20034;-83
2021/12/28 08:40:25;;;;;;;84.95;25.20;;;1.40;99.90;;;;;;5000958;28;20026;-84
2021/12/28 08:42:52;;;;;;;83.75;25.38;;;1.40;99.90;;;;;;5000986;28;20038;-85
2021/12/28 08:45:18;;;;;;;85.22;26.17;;;1.40;99.90;;;;;;5000898;28;20047;-85
2021/12/28 08:47:46;;;;;;;83.50;26.98;;;1.40;99.90;;;;;;5000814;28;20094;-84
2021/12/28 08:50:13;;;;;;;81.47;25.95;;;1.40;99.90;;;;;;4997940;28;20045;-84
2021/12/28 08:52:39;;;;;;;95.65;27.40;;;1.30;99.90;;;;;;4994891;28;20026;-85
2021/12/28 08:55:06;;;;;;;88.53;27.60;;;1.40;99.90;;;;;;4991112;28;20034;-86
2021/12/28 08:57:32;;;;;;;97.30;24.98;;;1.30;99.90;;;;;;4994895;28;20041;-86
2021/12/28 08:59:58;;;;;;;80.05;25.95;;;1.40;99.90;;;;;;4997588;28;20092;-85
2021/12/28 09:02:24;;;;;;;98.13;25.38;;;1.30;99.90;;;;;;4997733;28;20034;-86
2021/12/28 09:04:51;;;;;;;92.32;25.65;;;1.40;99.90;;;;;;4996591;28;20073;-85
2021/12/28 09:07:18;;;;;;;92.78;25.98;;;1.40;99.90;;;;;;4999167;28;20027;-83
2021/12/28 09:09:46;;;;;;;85.82;26.98;;;1.40;99.90;;;;;;5000553;28;20031;-85
2021/12/28 09:12:12;;;;;;;86.15;25.60;;;1.50;99.90;;;;;;5000450;28;20023;-84
2021/12/28 09:14:39;;;;;;;92.57;26.27;;;1.50;99.90;;;;;;4999964;28;20018;-83
2021/12/28 09:17:06;;;;;;;104.90;26.20;;;1.60;99.90;;;;;;4998963;28;20262;-84
2021/12/28 09:19:32;;;;;;;84.57;25.73;;;1.60;99.90;;;;;;4999500;28;20175;-85
2021/12/28 09:21:59;;;;;;;82.40;23.25;;;1.70;99.90;;;;;;4996392;28;20123;-86
2021/12/28 09:24:26;;;;;;;91.18;26.55;;;1.60;99.90;;;;;;4990610;28;20065;-85
2021/12/28 09:26:52;;;;;;;79.50;24.25;;;1.70;99.90;;;;;;4992215;28;20364;-83
2021/12/28 09:29:18;;;;;;;84.18;25.45;;;1.80;99.90;;;;;;4993854;28;20027;-85
2021/12/28 09:31:43;;;;;;;82.60;26.17;;;1.70;99.90;;;;;;4989030;28;20027;-84
2021/12/28 09:34:09;;;;;;;92.38;25.83;;;1.70;99.90;;;;;;4988568;28;20059;-85
2021/12/28 09:36:35;;;;;;;81.82;25.20;;;1.70;99.90;;;;;;4986096;28;20169;-85
2021/12/28 09:39:01;;;;;;;79.97;25.73;;;1.70;99.90;;;;;;4987112;28;20031;-84
2021/12/28 09:41:27;;;;;;;84.32;25.20;;;1.70;99.90;;;;;;4988066;28;20015;-84
2021/12/28 09:43:53;;;;;;;88.90;24.80;;;1.70;99.90;;;;;;4988259;28;20042;-85
2021/12/28 09:46:19;;;;;;;85.80;23.42;;;1.70;99.90;;;;;;4987521;28;20031;-85
2021/12/28 09:48:44;;;;;;;80.10;24.58;;;1.70;99.90;;;;;;4987037;28;20066;-84
2021/12/28 09:51:10;;;;;;;72.68;23.42;;;1.70;99.90;;;;;;4991019;28;20031;-84
2021/12/28 09:53:38;;;;;;;82.78;23.27;;;1.80;99.90;;;;;;4971496;28;20031;-83
2021/12/28 09:56:05;;;;;;;69.75;22.88;;;1.80;99.90;;;;;;4993314;28;20019;-84
2021/12/28 09:58:40;;;;;;;79.38;23.35;;;1.80;99.90;;;;;;4989889;28;20058;-84
2021/12/28 10:01:09;;;;;;;68.75;21.85;;;1.70;99.90;;;;;;4985435;28;20041;-84
2021/12/28 10:03:35;;;;;;;79.97;23.33;;;1.80;99.90;;;;;;4973171;28;20031;-86
2021/12/28 10:06:19;;;;;;;73.38;23.45;;;1.80;99.90;;;;;;4990935;28;20044;-84
2021/12/28 10:08:45;;;;;;;74.28;22.30;;;1.80;99.90;;;;;;4995429;28;20019;-87
2021/12/28 10:11:11;;;;;;;70.47;22.92;;;1.80;99.90;;;;;;4997011;28;20034;-86
2021/12/28 10:13:37;;;;;;;72.78;22.13;;;1.90;99.90;;;;;;4998282;28;20023;-85
2021/12/28 10:16:03;;;;;;;64.15;20.42;;;1.90;99.90;;;;;;4998787;28;20015;-86
2021/12/28 10:18:29;;;;;;;62.92;20.45;;;1.90;99.90;;;;;;4998927;28;20034;-86
2021/12/28 10:20:58;;;;;;;67.55;22.27;;;2.00;99.90;;;;;;4996763;28;20023;-86
2021/12/28 10:23:27;;;;;;;59.15;19.33;;;2.00;99.90;;;;;;4996888;28;20062;-86
2021/12/28 10:25:57;;;;;;;59.70;20.42;;;2.00;99.90;;;;;;4997041;28;20057;-85
2021/12/28 10:28:32;;;;;;;45.38;17.13;;;2.00;99.90;;;;;;4994166;28;20086;-86
2021/12/28 10:31:17;;;;;;;49.83;18.55;;;2.10;99.90;;;;;;4993615;28;20395;-85
2021/12/28 10:33:44;;;;;;;59.53;19.50;;;1.80;99.90;;;;;;4992795;28;20039;-87
2021/12/28 10:36:13;;;;;;;52.80;18.55;;;1.80;99.90;;;;;;4977075;28;20023;-85
2021/12/28 10:38:50;;;;;;;65.65;20.35;;;1.70;99.90;;;;;;4993713;28;20031;-87
2021/12/28 10:41:18;;;;;;;58.63;18.92;;;1.70;99.90;;;;;;4991450;28;20031;-85
2021/12/28 10:43:49;;;;;;;55.25;17.65;;;1.60;99.90;;;;;;4991276;28;20031;-87
2021/12/28 10:46:17;;;;;;;57.47;19.75;;;1.60;99.90;;;;;;4993009;28;20042;-86
2021/12/28 10:48:50;;;;;;;52.30;17.55;;;1.50;99.90;;;;;;4996915;28;20130;-86
2021/12/28 10:51:28;;;;;;;61.40;20.92;;;1.60;99.90;;;;;;4996287;28;20046;-86
2021/12/28 10:54:12;;;;;;;61.42;19.75;;;1.60;99.90;;;;;;4996980;28;20027;-86
2021/12/28 10:56:39;;;;;;;55.17;19.25;;;1.60;99.90;;;;;;4997757;28;20031;-86
2021/12/28 10:59:07;;;;;;;51.60;17.77;;;1.70;99.90;;;;;;4997694;28;20091;-87
2021/12/28 11:01:39;;;;;;;52.92;17.95;;;1.70;99.90;;;;;;4997683;28;20031;-87
2021/12/28 11:04:09;;;;;;;57.17;17.15;;;1.70;99.90;;;;;;4997765;28;20046;-86
2021/12/28 11:06:38;;;;;;;42.63;16.48;;;1.80;99.90;;;;;;4995512;28;20049;-85
2021/12/28 11:09:09;;;;;;;41.22;15.80;;;1.90;99.90;;;;;;4990881;28;20090;-91
2021/12/28 11:11:39;;;;;;;49.88;17.15;;;1.90;99.90;;;;;;4976479;28;20069;-89
2021/12/28 11:14:12;;;;;;;45.13;15.88;;;1.90;99.90;;;;;;4988169;28;20043;-89
2021/12/28 11:16:39;;;;;;;42.40;16.23;;;2.00;99.90;;;;;;4988397;28;20170;-89
2021/12/28 11:19:08;;;;;;;44.95;16.15;;;2.00;99.90;;;;;;4986485;28;20087;-89
2021/12/28 11:21:39;;;;;;;40.78;15.73;;;2.00;99.90;;;;;;4969691;28;20037;-89
2021/12/28 11:24:10;;;;;;;45.17;16.15;;;2.00;99.90;;;;;;4985502;28;20084;-86
2021/12/28 11:26:42;;;;;;;43.75;16.27;;;2.00;99.90;;;;;;4984497;28;20035;-87
2021/12/28 11:29:15;;;;;;;48.28;17.45;;;2.00;99.90;;;;;;4994597;28;20054;-85
2021/12/28 11:31:50;;;;;;;50.75;16.40;;;2.10;99.90;;;;;;4983606;28;20034;-84
2021/12/28 11:34:36;;;;;;;43.55;16.00;;;2.00;99.90;;;;;;4984134;28;20098;-86
2021/12/28 11:37:10;;;;;;;42.03;16.38;;;2.10;99.90;;;;;;4987250;28;20058;-86
2021/12/28 11:39:38;;;;;;;;;;;2.10;99.90;;;;;;4983164;28;20034;-86
2021/12/28 11:42:05;;;;;;;39.22;14.57;;;2.10;99.90;;;;;;4983073;28;19929;-86
2021/12/28 11:44:32;;;;;;;35.28;13.95;;;2.20;99.90;;;;;;4985512;28;20085;-85
2021/12/28 11:47:00;;;;;;;47.65;15.32;;;2.10;99.90;;;;;;4984876;28;20026;-86
2021/12/28 11:49:28;;;;;;;41.15;14.50;;;2.20;99.90;;;;;;4985437;28;20030;-85
2021/12/28 11:51:59;;;;;;;44.75;14.82;;;2.10;99.90;;;;;;4983658;28;20090;-87
2021/12/28 11:54:29;;;;;;;38.50;14.73;;;2.00;99.90;;;;;;4983624;28;20054;-84
2021/12/28 11:57:00;;;;;;;43.03;16.02;;;2.00;99.90;;;;;;4986481;28;20057;-86
2021/12/28 11:59:29;;;;;;;41.90;15.13;;;1.90;99.90;;;;;;4989939;28;20027;-85
2021/12/28 12:01:59;;;;;;;40.53;15.82;;;2.00;99.90;;;;;;4988462;28;20023;-85
2021/12/28 12:04:34;;;;;;;44.67;15.15;;;2.00;99.90;;;;;;4991889;28;20058;-84
2021/12/28 12:07:15;;;;;;;36.88;14.57;;;1.90;99.90;;;;;;5000887;28;20069;-85
2021/12/28 12:09:50;;;;;;;37.50;14.68;;;1.90;99.90;;;;;;4999535;28;20038;-84
2021/12/28 12:12:18;;;;;;;;;;;1.90;99.90;;;;;;4999735;28;20027;-84
2021/12/28 12:14:50;;;;;;;44.33;15.25;;;2.00;99.90;;;;;;4997257;28;19941;-84
2021/12/28 12:17:34;;;;;;;36.67;13.57;;;2.00;99.90;;;;;;4997247;28;20035;-84
2021/12/28 12:20:05;;;;;;;33.88;13.65;;;1.90;99.90;;;;;;4994360;28;20027;-84
2021/12/28 12:22:45;;;;;;;43.47;15.52;;;1.90;99.90;;;;;;4992789;28;20038;-87
2021/12/28 12:25:19;;;;;;;37.00;14.07;;;1.80;99.90;;;;;;4989185;28;20109;-85
2021/12/28 12:27:53;;;;;;;39.80;14.50;;;1.80;99.90;;;;;;4990073;28;20035;-85
2021/12/28 12:30:25;;;;;;;37.58;13.63;;;1.80;99.90;;;;;;4991385;28;20031;-86
2021/12/28 12:33:10;;;;;;;44.28;15.10;;;1.80;99.90;;;;;;4991917;28;20038;-86
2021/12/28 12:35:41;;;;;;;39.38;14.40;;;1.80;99.90;;;;;;4988175;28;20023;-85
2021/12/28 12:38:10;;;;;;;37.22;13.90;;;1.80;99.90;;;;;;4986771;28;20027;-85
2021/12/28 12:41:16;;;;;;;40.80;15.13;;;1.90;99.90;;;;;;4990657;28;20034;-85
2021/12/28 12:43:49;;;;;;;37.50;14.20;;;1.80;99.90;;;;;;4988918;28;20098;-85
2021/12/28 12:46:23;;;;;;;33.58;12.75;;;1.80;99.90;;;;;;4989650;28;20039;-86